sensor_id;sensor_type;location;lat;lon;timestamp;P1;durP1;ratioP1;P2;durP2;ratioP2
10174;SDS011;18221;38.704;0.152;2023-08-17T00:11:43;14.25;;;8.32;;
10174;SDS011;18221;38.704;0.152;2023-08-17T00:14:12;11.50;;;8.00;;
10174;SDS011;18221;38.704;0.152;2023-08-17T00:16:40;14.00;;;8.23;;
10174;SDS011;18221;38.704;0.152;2023-08-17T00:19:08;13.65;;;8.38;;
10174;SDS011;18221;38.704;0.152;2023-08-17T00:21:37;14.82;;;7.82;;
10174;SDS011;18221;38.704;0.152;2023-08-17T00:24:05;11.68;;;7.75;;
10174;SDS011;18221;38.704;0.152;2023-08-17T00:26:34;13.63;;;7.78;;
10174;SDS011;18221;38.704;0.152;2023-08-17T00:29:02;14.15;;;7.88;;
10174;SDS011;18221;38.704;0.152;2023-08-17T00:31:32;18.85;;;7.97;;
10174;SDS011;18221;38.704;0.152;2023-08-17T00:34:00;12.93;;;7.60;;
10174;SDS011;18221;38.704;0.152;2023-08-17T00:36:28;12.70;;;7.78;;
10174;SDS011;18221;38.704;0.152;2023-08-17T00:38:57;13.02;;;7.55;;
10174;SDS011;18221;38.704;0.152;2023-08-17T00:41:25;11.48;;;7.35;;
10174;SDS011;18221;38.704;0.152;2023-08-17T00:43:53;11.85;;;7.80;;
10174;SDS011;18221;38.704;0.152;2023-08-17T00:46:22;11.90;;;7.45;;
10174;SDS011;18221;38.704;0.152;2023-08-17T00:48:53;13.80;;;8.00;;
10174;SDS011;18221;38.704;0.152;2023-08-17T00:51:21;15.80;;;8.25;;
10174;SDS011;18221;38.704;0.152;2023-08-17T00:53:50;11.52;;;7.45;;
10174;SDS011;18221;38.704;0.152;2023-08-17T00:56:23;14.77;;;7.20;;
10174;SDS011;18221;38.704;0.152;2023-08-17T00:58:52;14.90;;;7.60;;
10174;SDS011;18221;38.704;0.152;2023-08-17T01:01:22;15.75;;;7.70;;
10174;SDS011;18221;38.704;0.152;2023-08-17T01:03:50;16.77;;;7.47;;
10174;SDS011;18221;38.704;0.152;2023-08-17T01:06:20;12.32;;;7.63;;
10174;SDS011;18221;38.704;0.152;2023-08-17T01:08:48;16.40;;;8.27;;
10174;SDS011;18221;38.704;0.152;2023-08-17T01:11:18;13.38;;;7.53;;
10174;SDS011;18221;38.704;0.152;2023-08-17T01:13:59;13.77;;;7.55;;
10174;SDS011;18221;38.704;0.152;2023-08-17T01:16:37;11.75;;;7.55;;
10174;SDS011;18221;38.704;0.152;2023-08-17T01:19:18;13.25;;;8.18;;
10174;SDS011;18221;38.704;0.152;2023-08-17T01:21:54;11.73;;;7.00;;
10174;SDS011;18221;38.704;0.152;2023-08-17T01:24:31;12.10;;;6.50;;
10174;SDS011;18221;38.704;0.152;2023-08-17T01:26:59;9.55;;;7.53;;
10174;SDS011;18221;38.704;0.152;2023-08-17T01:29:27;12.98;;;6.82;;
10174;SDS011;18221;38.704;0.152;2023-08-17T01:31:57;11.25;;;6.80;;
10174;SDS011;18221;38.704;0.152;2023-08-17T01:34:35;10.98;;;6.35;;
10174;SDS011;18221;38.704;0.152;2023-08-17T01:37:15;11.70;;;6.40;;
10174;SDS011;18221;38.704;0.152;2023-08-17T01:39:51;13.10;;;6.88;;
10174;SDS011;18221;38.704;0.152;2023-08-17T01:42:23;11.88;;;6.80;;
10174;SDS011;18221;38.704;0.152;2023-08-17T01:44:53;8.98;;;6.57;;
10174;SDS011;18221;38.704;0.152;2023-08-17T01:47:21;11.05;;;6.80;;
10174;SDS011;18221;38.704;0.152;2023-08-17T01:49:49;10.18;;;5.97;;
10174;SDS011;18221;38.704;0.152;2023-08-17T01:52:18;11.88;;;6.60;;
10174;SDS011;18221;38.704;0.152;2023-08-17T01:54:45;13.75;;;6.32;;
10174;SDS011;18221;38.704;0.152;2023-08-17T01:57:15;8.35;;;5.53;;
10174;SDS011;18221;38.704;0.152;2023-08-17T01:59:43;9.38;;;5.70;;
10174;SDS011;18221;38.704;0.152;2023-08-17T02:02:11;8.32;;;5.88;;
10174;SDS011;18221;38.704;0.152;2023-08-17T02:04:40;7.68;;;5.65;;
10174;SDS011;18221;38.704;0.152;2023-08-17T02:07:08;11.75;;;5.63;;
10174;SDS011;18221;38.704;0.152;2023-08-17T02:09:36;6.82;;;5.20;;
10174;SDS011;18221;38.704;0.152;2023-08-17T02:12:04;10.93;;;5.45;;
10174;SDS011;18221;38.704;0.152;2023-08-17T02:14:35;9.85;;;5.50;;
10174;SDS011;18221;38.704;0.152;2023-08-17T02:17:03;11.13;;;5.22;;
10174;SDS011;18221;38.704;0.152;2023-08-17T02:19:31;10.13;;;5.75;;
10174;SDS011;18221;38.704;0.152;2023-08-17T02:22:00;10.32;;;5.90;;
10174;SDS011;18221;38.704;0.152;2023-08-17T02:24:28;8.95;;;5.47;;
10174;SDS011;18221;38.704;0.152;2023-08-17T02:26:55;9.25;;;5.85;;
10174;SDS011;18221;38.704;0.152;2023-08-17T02:29:23;7.53;;;5.32;;
10174;SDS011;18221;38.704;0.152;2023-08-17T02:31:53;7.95;;;5.30;;
10174;SDS011;18221;38.704;0.152;2023-08-17T02:34:21;6.72;;;5.28;;
10174;SDS011;18221;38.704;0.152;2023-08-17T02:36:49;10.13;;;5.57;;
10174;SDS011;18221;38.704;0.152;2023-08-17T02:39:17;7.00;;;5.18;;
10174;SDS011;18221;38.704;0.152;2023-08-17T02:41:45;11.13;;;5.50;;
10174;SDS011;18221;38.704;0.152;2023-08-17T02:44:14;8.60;;;5.30;;
10174;SDS011;18221;38.704;0.152;2023-08-17T02:46:42;9.27;;;5.28;;
10174;SDS011;18221;38.704;0.152;2023-08-17T02:49:15;9.23;;;5.15;;
10174;SDS011;18221;38.704;0.152;2023-08-17T02:51:43;9.88;;;4.90;;
10174;SDS011;18221;38.704;0.152;2023-08-17T02:54:10;8.98;;;5.40;;
10174;SDS011;18221;38.704;0.152;2023-08-17T02:56:39;7.90;;;4.72;;
10174;SDS011;18221;38.704;0.152;2023-08-17T03:01:53;7.22;;;4.85;;
10174;SDS011;18221;38.704;0.152;2023-08-17T03:04:26;9.40;;;5.10;;
10174;SDS011;18221;38.704;0.152;2023-08-17T03:06:54;9.55;;;5.60;;
10174;SDS011;18221;38.704;0.152;2023-08-17T03:09:22;6.63;;;4.93;;
10174;SDS011;18221;38.704;0.152;2023-08-17T03:11:50;9.00;;;4.70;;
10174;SDS011;18221;38.704;0.152;2023-08-17T03:14:18;9.18;;;5.38;;
10174;SDS011;18221;38.704;0.152;2023-08-17T03:16:46;8.20;;;5.45;;
10174;SDS011;18221;38.704;0.152;2023-08-17T03:19:14;8.68;;;5.45;;
10174;SDS011;18221;38.704;0.152;2023-08-17T03:21:44;10.73;;;5.32;;
10174;SDS011;18221;38.704;0.152;2023-08-17T03:24:12;9.25;;;4.97;;
10174;SDS011;18221;38.704;0.152;2023-08-17T03:26:40;10.90;;;5.15;;
10174;SDS011;18221;38.704;0.152;2023-08-17T03:29:08;6.97;;;5.43;;
10174;SDS011;18221;38.704;0.152;2023-08-17T03:31:35;10.75;;;5.40;;
10174;SDS011;18221;38.704;0.152;2023-08-17T03:34:03;12.52;;;5.63;;
10174;SDS011;18221;38.704;0.152;2023-08-17T03:36:34;12.57;;;5.32;;
10174;SDS011;18221;38.704;0.152;2023-08-17T03:39:04;8.65;;;5.47;;
10174;SDS011;18221;38.704;0.152;2023-08-17T03:41:32;11.00;;;5.22;;
10174;SDS011;18221;38.704;0.152;2023-08-17T03:44:02;8.95;;;5.30;;
10174;SDS011;18221;38.704;0.152;2023-08-17T03:46:31;9.40;;;5.63;;
10174;SDS011;18221;38.704;0.152;2023-08-17T03:48:59;9.60;;;5.20;;
10174;SDS011;18221;38.704;0.152;2023-08-17T03:51:28;11.20;;;5.57;;
10174;SDS011;18221;38.704;0.152;2023-08-17T03:53:55;11.10;;;5.13;;
10174;SDS011;18221;38.704;0.152;2023-08-17T03:56:25;11.45;;;5.80;;
10174;SDS011;18221;38.704;0.152;2023-08-17T03:58:53;8.50;;;5.43;;
10174;SDS011;18221;38.704;0.152;2023-08-17T04:01:21;9.52;;;5.40;;
10174;SDS011;18221;38.704;0.152;2023-08-17T04:03:49;13.00;;;5.65;;
10174;SDS011;18221;38.704;0.152;2023-08-17T04:06:17;11.85;;;5.85;;
10174;SDS011;18221;38.704;0.152;2023-08-17T04:08:45;13.15;;;6.07;;
10174;SDS011;18221;38.704;0.152;2023-08-17T04:11:13;13.30;;;6.00;;
10174;SDS011;18221;38.704;0.152;2023-08-17T04:13:43;11.32;;;6.00;;
10174;SDS011;18221;38.704;0.152;2023-08-17T04:16:11;12.98;;;6.10;;
10174;SDS011;18221;38.704;0.152;2023-08-17T04:18:41;8.65;;;6.07;;
10174;SDS011;18221;38.704;0.152;2023-08-17T04:21:09;11.23;;;5.95;;
10174;SDS011;18221;38.704;0.152;2023-08-17T04:23:37;9.25;;;5.93;;
10174;SDS011;18221;38.704;0.152;2023-08-17T04:26:05;11.15;;;6.20;;
10174;SDS011;18221;38.704;0.152;2023-08-17T04:28:32;10.27;;;6.05;;
10174;SDS011;18221;38.704;0.152;2023-08-17T04:31:02;12.63;;;6.05;;
10174;SDS011;18221;38.704;0.152;2023-08-17T04:33:30;10.63;;;6.05;;
10174;SDS011;18221;38.704;0.152;2023-08-17T04:35:58;12.77;;;6.07;;
10174;SDS011;18221;38.704;0.152;2023-08-17T04:38:26;9.20;;;5.82;;
10174;SDS011;18221;38.704;0.152;2023-08-17T04:40:54;14.63;;;6.60;;
10174;SDS011;18221;38.704;0.152;2023-08-17T04:43:22;9.38;;;6.00;;
10174;SDS011;18221;38.704;0.152;2023-08-17T04:45:50;9.15;;;5.45;;
10174;SDS011;18221;38.704;0.152;2023-08-17T04:48:20;9.50;;;5.72;;
10174;SDS011;18221;38.704;0.152;2023-08-17T04:50:48;11.55;;;6.35;;
10174;SDS011;18221;38.704;0.152;2023-08-17T04:53:17;12.55;;;6.60;;
10174;SDS011;18221;38.704;0.152;2023-08-17T04:55:45;12.75;;;6.80;;
10174;SDS011;18221;38.704;0.152;2023-08-17T04:58:13;9.43;;;6.22;;
10174;SDS011;18221;38.704;0.152;2023-08-17T05:00:41;10.57;;;6.20;;
10174;SDS011;18221;38.704;0.152;2023-08-17T05:03:09;10.60;;;6.50;;
10174;SDS011;18221;38.704;0.152;2023-08-17T05:05:38;9.65;;;6.10;;
10174;SDS011;18221;38.704;0.152;2023-08-17T05:08:06;11.70;;;7.28;;
10174;SDS011;18221;38.704;0.152;2023-08-17T05:10:34;11.82;;;6.65;;
10174;SDS011;18221;38.704;0.152;2023-08-17T05:13:02;9.68;;;6.75;;
10174;SDS011;18221;38.704;0.152;2023-08-17T05:15:30;11.57;;;7.00;;
10174;SDS011;18221;38.704;0.152;2023-08-17T05:17:58;10.55;;;6.97;;
10174;SDS011;18221;38.704;0.152;2023-08-17T05:20:26;10.93;;;7.53;;
10174;SDS011;18221;38.704;0.152;2023-08-17T05:22:56;10.43;;;6.88;;
10174;SDS011;18221;38.704;0.152;2023-08-17T05:25:24;8.73;;;6.97;;
10174;SDS011;18221;38.704;0.152;2023-08-17T05:27:54;10.60;;;6.50;;
10174;SDS011;18221;38.704;0.152;2023-08-17T05:30:22;15.38;;;7.15;;
10174;SDS011;18221;38.704;0.152;2023-08-17T05:32:50;11.15;;;7.40;;
10174;SDS011;18221;38.704;0.152;2023-08-17T05:35:18;13.80;;;7.45;;
10174;SDS011;18221;38.704;0.152;2023-08-17T05:37:46;11.07;;;6.90;;
10174;SDS011;18221;38.704;0.152;2023-08-17T05:40:18;13.38;;;7.30;;
10174;SDS011;18221;38.704;0.152;2023-08-17T05:42:46;11.80;;;7.00;;
10174;SDS011;18221;38.704;0.152;2023-08-17T05:45:14;14.52;;;8.13;;
10174;SDS011;18221;38.704;0.152;2023-08-17T05:47:42;11.82;;;7.50;;
10174;SDS011;18221;38.704;0.152;2023-08-17T05:50:10;12.20;;;7.07;;
10174;SDS011;18221;38.704;0.152;2023-08-17T05:52:39;12.95;;;7.35;;
10174;SDS011;18221;38.704;0.152;2023-08-17T05:55:08;12.23;;;7.43;;
10174;SDS011;18221;38.704;0.152;2023-08-17T05:57:37;11.80;;;7.20;;
10174;SDS011;18221;38.704;0.152;2023-08-17T06:00:06;11.77;;;7.47;;
10174;SDS011;18221;38.704;0.152;2023-08-17T06:02:37;13.27;;;7.53;;
10174;SDS011;18221;38.704;0.152;2023-08-17T06:05:05;15.57;;;7.57;;
10174;SDS011;18221;38.704;0.152;2023-08-17T06:07:34;11.25;;;7.18;;
10174;SDS011;18221;38.704;0.152;2023-08-17T06:10:03;11.80;;;7.20;;
10174;SDS011;18221;38.704;0.152;2023-08-17T06:12:32;11.07;;;7.25;;
10174;SDS011;18221;38.704;0.152;2023-08-17T06:15:02;12.85;;;7.28;;
10174;SDS011;18221;38.704;0.152;2023-08-17T06:17:33;14.80;;;7.72;;
10174;SDS011;18221;38.704;0.152;2023-08-17T06:20:01;12.90;;;7.60;;
10174;SDS011;18221;38.704;0.152;2023-08-17T06:22:30;12.63;;;7.03;;
10174;SDS011;18221;38.704;0.152;2023-08-17T06:24:58;12.18;;;6.97;;
10174;SDS011;18221;38.704;0.152;2023-08-17T06:27:26;13.65;;;7.97;;
10174;SDS011;18221;38.704;0.152;2023-08-17T06:29:54;15.43;;;8.10;;
10174;SDS011;18221;38.704;0.152;2023-08-17T06:32:24;16.27;;;7.45;;
10174;SDS011;18221;38.704;0.152;2023-08-17T06:34:52;16.70;;;8.27;;
10174;SDS011;18221;38.704;0.152;2023-08-17T06:37:20;10.23;;;7.25;;
10174;SDS011;18221;38.704;0.152;2023-08-17T06:39:48;11.13;;;7.32;;
10174;SDS011;18221;38.704;0.152;2023-08-17T06:42:19;12.02;;;6.88;;
10174;SDS011;18221;38.704;0.152;2023-08-17T06:44:47;12.18;;;7.25;;
10174;SDS011;18221;38.704;0.152;2023-08-17T06:47:15;13.13;;;7.20;;
10174;SDS011;18221;38.704;0.152;2023-08-17T06:49:44;11.15;;;6.97;;
10174;SDS011;18221;38.704;0.152;2023-08-17T06:52:12;10.90;;;7.18;;
10174;SDS011;18221;38.704;0.152;2023-08-17T06:54:40;13.68;;;7.72;;
10174;SDS011;18221;38.704;0.152;2023-08-17T06:57:08;18.17;;;7.97;;
10174;SDS011;18221;38.704;0.152;2023-08-17T06:59:36;12.63;;;7.68;;
10174;SDS011;18221;38.704;0.152;2023-08-17T07:02:04;10.23;;;7.78;;
10174;SDS011;18221;38.704;0.152;2023-08-17T07:04:32;11.00;;;7.22;;
10174;SDS011;18221;38.704;0.152;2023-08-17T07:07:02;12.60;;;7.28;;
10174;SDS011;18221;38.704;0.152;2023-08-17T07:09:30;20.25;;;8.38;;
10174;SDS011;18221;38.704;0.152;2023-08-17T07:11:58;11.93;;;7.45;;
10174;SDS011;18221;38.704;0.152;2023-08-17T07:14:26;12.65;;;8.32;;
10174;SDS011;18221;38.704;0.152;2023-08-17T07:16:54;13.13;;;8.43;;
10174;SDS011;18221;38.704;0.152;2023-08-17T07:19:22;11.93;;;7.28;;
10174;SDS011;18221;38.704;0.152;2023-08-17T07:21:50;9.02;;;6.90;;
10174;SDS011;18221;38.704;0.152;2023-08-17T07:24:20;10.85;;;7.47;;
10174;SDS011;18221;38.704;0.152;2023-08-17T07:26:48;12.25;;;6.97;;
10174;SDS011;18221;38.704;0.152;2023-08-17T07:29:16;12.13;;;6.85;;
10174;SDS011;18221;38.704;0.152;2023-08-17T07:31:47;10.65;;;6.72;;
10174;SDS011;18221;38.704;0.152;2023-08-17T07:34:15;13.02;;;7.13;;
10174;SDS011;18221;38.704;0.152;2023-08-17T07:36:43;12.73;;;6.88;;
10174;SDS011;18221;38.704;0.152;2023-08-17T07:39:10;10.98;;;6.45;;
10174;SDS011;18221;38.704;0.152;2023-08-17T07:41:41;11.27;;;6.60;;
10174;SDS011;18221;38.704;0.152;2023-08-17T07:44:09;13.02;;;6.78;;
10174;SDS011;18221;38.704;0.152;2023-08-17T07:46:37;10.40;;;5.65;;
10174;SDS011;18221;38.704;0.152;2023-08-17T07:49:05;12.23;;;5.97;;
10174;SDS011;18221;38.704;0.152;2023-08-17T07:51:35;11.85;;;5.85;;
10174;SDS011;18221;38.704;0.152;2023-08-17T07:54:03;8.35;;;5.10;;
10174;SDS011;18221;38.704;0.152;2023-08-17T07:56:34;9.68;;;4.82;;
10174;SDS011;18221;38.704;0.152;2023-08-17T07:59:03;9.48;;;4.68;;
10174;SDS011;18221;38.704;0.152;2023-08-17T08:01:31;8.82;;;4.82;;
10174;SDS011;18221;38.704;0.152;2023-08-17T08:03:59;9.85;;;4.68;;
10174;SDS011;18221;38.704;0.152;2023-08-17T08:06:28;6.50;;;4.25;;
10174;SDS011;18221;38.704;0.152;2023-08-17T08:08:56;10.48;;;4.97;;
10174;SDS011;18221;38.704;0.152;2023-08-17T08:11:24;9.60;;;4.78;;
10174;SDS011;18221;38.704;0.152;2023-08-17T08:13:55;10.13;;;4.80;;
10174;SDS011;18221;38.704;0.152;2023-08-17T08:16:24;7.80;;;4.68;;
10174;SDS011;18221;38.704;0.152;2023-08-17T08:18:55;5.97;;;4.32;;
10174;SDS011;18221;38.704;0.152;2023-08-17T08:21:24;10.57;;;4.68;;
10174;SDS011;18221;38.704;0.152;2023-08-17T08:23:53;8.57;;;5.25;;
10174;SDS011;18221;38.704;0.152;2023-08-17T08:26:21;7.45;;;5.13;;
10174;SDS011;18221;38.704;0.152;2023-08-17T08:28:49;7.45;;;5.05;;
10174;SDS011;18221;38.704;0.152;2023-08-17T08:31:17;8.90;;;5.50;;
10174;SDS011;18221;38.704;0.152;2023-08-17T08:33:47;9.10;;;4.93;;
10174;SDS011;18221;38.704;0.152;2023-08-17T08:36:19;9.65;;;5.32;;
10174;SDS011;18221;38.704;0.152;2023-08-17T08:38:47;10.95;;;5.13;;
10174;SDS011;18221;38.704;0.152;2023-08-17T08:41:15;9.90;;;5.03;;
10174;SDS011;18221;38.704;0.152;2023-08-17T08:43:43;8.80;;;5.28;;
10174;SDS011;18221;38.704;0.152;2023-08-17T08:46:12;8.57;;;5.07;;
10174;SDS011;18221;38.704;0.152;2023-08-17T08:48:43;7.15;;;5.43;;
10174;SDS011;18221;38.704;0.152;2023-08-17T08:51:17;10.50;;;5.97;;
10174;SDS011;18221;38.704;0.152;2023-08-17T08:53:54;9.80;;;4.70;;
10174;SDS011;18221;38.704;0.152;2023-08-17T08:56:29;10.32;;;5.43;;
10174;SDS011;18221;38.704;0.152;2023-08-17T08:59:01;10.52;;;5.65;;
10174;SDS011;18221;38.704;0.152;2023-08-17T09:01:30;8.90;;;5.00;;
10174;SDS011;18221;38.704;0.152;2023-08-17T09:04:01;8.45;;;4.22;;
10174;SDS011;18221;38.704;0.152;2023-08-17T09:06:32;10.75;;;5.03;;
10174;SDS011;18221;38.704;0.152;2023-08-17T09:09:01;10.20;;;4.72;;
10174;SDS011;18221;38.704;0.152;2023-08-17T09:11:31;9.68;;;5.03;;
10174;SDS011;18221;38.704;0.152;2023-08-17T09:13:59;8.90;;;4.93;;
10174;SDS011;18221;38.704;0.152;2023-08-17T09:16:27;8.40;;;5.32;;
10174;SDS011;18221;38.704;0.152;2023-08-17T09:18:55;11.02;;;5.18;;
10174;SDS011;18221;38.704;0.152;2023-08-17T09:21:25;10.48;;;4.95;;
10174;SDS011;18221;38.704;0.152;2023-08-17T09:23:58;10.43;;;4.53;;
10174;SDS011;18221;38.704;0.152;2023-08-17T09:26:30;8.07;;;4.82;;
10174;SDS011;18221;38.704;0.152;2023-08-17T09:28:59;10.80;;;5.28;;
10174;SDS011;18221;38.704;0.152;2023-08-17T09:31:27;9.35;;;5.00;;
10174;SDS011;18221;38.704;0.152;2023-08-17T09:33:58;11.40;;;5.40;;
10174;SDS011;18221;38.704;0.152;2023-08-17T09:36:36;12.57;;;5.38;;
10174;SDS011;18221;38.704;0.152;2023-08-17T09:39:05;9.38;;;4.90;;
10174;SDS011;18221;38.704;0.152;2023-08-17T09:41:37;11.63;;;5.53;;
10174;SDS011;18221;38.704;0.152;2023-08-17T09:44:07;7.25;;;4.93;;
10174;SDS011;18221;38.704;0.152;2023-08-17T09:46:35;11.48;;;5.40;;
10174;SDS011;18221;38.704;0.152;2023-08-17T09:49:03;13.63;;;5.78;;
10174;SDS011;18221;38.704;0.152;2023-08-17T09:51:35;12.13;;;5.45;;
10174;SDS011;18221;38.704;0.152;2023-08-17T09:54:04;8.48;;;5.43;;
10174;SDS011;18221;38.704;0.152;2023-08-17T09:56:32;10.02;;;5.28;;
10174;SDS011;18221;38.704;0.152;2023-08-17T09:59:02;13.00;;;5.18;;
10174;SDS011;18221;38.704;0.152;2023-08-17T10:01:31;11.32;;;5.38;;
10174;SDS011;18221;38.704;0.152;2023-08-17T10:03:59;12.70;;;5.20;;
10174;SDS011;18221;38.704;0.152;2023-08-17T10:06:30;10.63;;;5.50;;
10174;SDS011;18221;38.704;0.152;2023-08-17T10:09:06;9.50;;;5.43;;
10174;SDS011;18221;38.704;0.152;2023-08-17T10:11:41;11.85;;;6.40;;
10174;SDS011;18221;38.704;0.152;2023-08-17T10:14:13;8.63;;;5.57;;
10174;SDS011;18221;38.704;0.152;2023-08-17T10:16:49;11.35;;;5.57;;
10174;SDS011;18221;38.704;0.152;2023-08-17T10:19:30;14.68;;;5.70;;
10174;SDS011;18221;38.704;0.152;2023-08-17T10:22:15;12.63;;;6.07;;
10174;SDS011;18221;38.704;0.152;2023-08-17T10:24:47;11.25;;;5.55;;
10174;SDS011;18221;38.704;0.152;2023-08-17T10:27:18;14.27;;;6.35;;
10174;SDS011;18221;38.704;0.152;2023-08-17T10:29:48;12.93;;;6.35;;
10174;SDS011;18221;38.704;0.152;2023-08-17T10:32:20;14.00;;;5.88;;
10174;SDS011;18221;38.704;0.152;2023-08-17T10:34:51;13.55;;;5.78;;
10174;SDS011;18221;38.704;0.152;2023-08-17T10:37:21;15.05;;;6.20;;
10174;SDS011;18221;38.704;0.152;2023-08-17T10:39:50;13.85;;;6.15;;
10174;SDS011;18221;38.704;0.152;2023-08-17T10:50:59;12.63;;;5.93;;
10174;SDS011;18221;38.704;0.152;2023-08-17T10:53:36;11.25;;;5.80;;
10174;SDS011;18221;38.704;0.152;2023-08-17T10:56:08;15.30;;;5.93;;
10174;SDS011;18221;38.704;0.152;2023-08-17T10:58:39;10.57;;;6.25;;
10174;SDS011;18221;38.704;0.152;2023-08-17T11:01:10;15.52;;;6.75;;
10174;SDS011;18221;38.704;0.152;2023-08-17T11:03:39;10.48;;;5.93;;
10174;SDS011;18221;38.704;0.152;2023-08-17T11:06:17;15.98;;;8.15;;
10174;SDS011;18221;38.704;0.152;2023-08-17T11:08:53;11.65;;;6.72;;
10174;SDS011;18221;38.704;0.152;2023-08-17T11:11:22;14.65;;;7.55;;
10174;SDS011;18221;38.704;0.152;2023-08-17T11:13:52;17.30;;;9.82;;
10174;SDS011;18221;38.704;0.152;2023-08-17T11:16:20;16.23;;;8.38;;
10174;SDS011;18221;38.704;0.152;2023-08-17T11:18:48;13.43;;;6.80;;
10174;SDS011;18221;38.704;0.152;2023-08-17T11:21:18;13.45;;;7.28;;
10174;SDS011;18221;38.704;0.152;2023-08-17T11:23:47;13.75;;;5.78;;
10174;SDS011;18221;38.704;0.152;2023-08-17T11:26:16;13.43;;;6.13;;
10174;SDS011;18221;38.704;0.152;2023-08-17T11:28:45;15.80;;;5.78;;
10174;SDS011;18221;38.704;0.152;2023-08-17T11:31:14;11.90;;;5.57;;
10174;SDS011;18221;38.704;0.152;2023-08-17T11:33:42;10.02;;;5.45;;
10174;SDS011;18221;38.704;0.152;2023-08-17T11:36:12;11.05;;;5.80;;
10174;SDS011;18221;38.704;0.152;2023-08-17T11:38:40;12.90;;;6.10;;
10174;SDS011;18221;38.704;0.152;2023-08-17T11:41:10;13.18;;;5.93;;
10174;SDS011;18221;38.704;0.152;2023-08-17T11:43:42;11.75;;;5.80;;
10174;SDS011;18221;38.704;0.152;2023-08-17T11:46:11;11.32;;;5.50;;
10174;SDS011;18221;38.704;0.152;2023-08-17T11:48:39;13.43;;;5.72;;
10174;SDS011;18221;38.704;0.152;2023-08-17T11:51:07;10.93;;;5.20;;
10174;SDS011;18221;38.704;0.152;2023-08-17T11:53:36;13.52;;;5.85;;
10174;SDS011;18221;38.704;0.152;2023-08-17T11:56:05;10.10;;;5.43;;
10174;SDS011;18221;38.704;0.152;2023-08-17T11:58:41;11.95;;;6.07;;
10174;SDS011;18221;38.704;0.152;2023-08-17T12:01:12;10.48;;;5.18;;
10174;SDS011;18221;38.704;0.152;2023-08-17T12:03:41;10.82;;;5.65;;
10174;SDS011;18221;38.704;0.152;2023-08-17T12:06:10;11.07;;;5.30;;
10174;SDS011;18221;38.704;0.152;2023-08-17T12:08:41;13.25;;;5.30;;
10174;SDS011;18221;38.704;0.152;2023-08-17T12:11:11;14.73;;;5.22;;
10174;SDS011;18221;38.704;0.152;2023-08-17T12:13:41;12.70;;;5.25;;
10174;SDS011;18221;38.704;0.152;2023-08-17T12:16:14;14.05;;;5.57;;
10174;SDS011;18221;38.704;0.152;2023-08-17T12:18:43;12.80;;;5.40;;
10174;SDS011;18221;38.704;0.152;2023-08-17T12:21:12;13.10;;;5.65;;
10174;SDS011;18221;38.704;0.152;2023-08-17T12:23:40;13.05;;;5.35;;
10174;SDS011;18221;38.704;0.152;2023-08-17T12:26:08;9.43;;;5.38;;
10174;SDS011;18221;38.704;0.152;2023-08-17T12:28:40;13.07;;;5.40;;
10174;SDS011;18221;38.704;0.152;2023-08-17T12:31:09;10.93;;;5.90;;
10174;SDS011;18221;38.704;0.152;2023-08-17T12:33:37;10.00;;;5.10;;
10174;SDS011;18221;38.704;0.152;2023-08-17T12:36:05;10.55;;;5.03;;
10174;SDS011;18221;38.704;0.152;2023-08-17T12:38:33;10.43;;;5.30;;
10174;SDS011;18221;38.704;0.152;2023-08-17T12:41:03;10.63;;;4.95;;
10174;SDS011;18221;38.704;0.152;2023-08-17T12:43:31;9.68;;;5.15;;
10174;SDS011;18221;38.704;0.152;2023-08-17T12:46:00;9.38;;;4.95;;
10174;SDS011;18221;38.704;0.152;2023-08-17T12:48:28;13.18;;;5.25;;
10174;SDS011;18221;38.704;0.152;2023-08-17T12:50:56;12.55;;;5.22;;
10174;SDS011;18221;38.704;0.152;2023-08-17T12:53:24;8.07;;;4.68;;
10174;SDS011;18221;38.704;0.152;2023-08-17T12:55:52;9.25;;;5.07;;
10174;SDS011;18221;38.704;0.152;2023-08-17T12:58:21;10.65;;;5.05;;
10174;SDS011;18221;38.704;0.152;2023-08-17T13:00:49;11.23;;;4.97;;
10174;SDS011;18221;38.704;0.152;2023-08-17T13:03:21;11.85;;;5.32;;
10174;SDS011;18221;38.704;0.152;2023-08-17T13:05:49;11.90;;;4.65;;
10174;SDS011;18221;38.704;0.152;2023-08-17T13:08:17;8.02;;;4.47;;
10174;SDS011;18221;38.704;0.152;2023-08-17T13:10:45;12.70;;;4.70;;
10174;SDS011;18221;38.704;0.152;2023-08-17T13:13:13;10.90;;;4.65;;
10174;SDS011;18221;38.704;0.152;2023-08-17T13:15:41;9.65;;;4.80;;
10174;SDS011;18221;38.704;0.152;2023-08-17T13:18:09;10.13;;;4.90;;
10174;SDS011;18221;38.704;0.152;2023-08-17T13:20:38;12.98;;;4.90;;
10174;SDS011;18221;38.704;0.152;2023-08-17T13:23:07;12.52;;;5.10;;
10174;SDS011;18221;38.704;0.152;2023-08-17T13:25:35;10.85;;;4.80;;
10174;SDS011;18221;38.704;0.152;2023-08-17T13:28:03;12.63;;;4.68;;
10174;SDS011;18221;38.704;0.152;2023-08-17T13:30:32;10.82;;;5.13;;
10174;SDS011;18221;38.704;0.152;2023-08-17T13:32:59;8.18;;;4.50;;
10174;SDS011;18221;38.704;0.152;2023-08-17T13:35:28;10.20;;;5.07;;
10174;SDS011;18221;38.704;0.152;2023-08-17T13:37:57;11.20;;;4.68;;
10174;SDS011;18221;38.704;0.152;2023-08-17T13:40:28;8.45;;;4.43;;
10174;SDS011;18221;38.704;0.152;2023-08-17T13:42:56;12.88;;;4.90;;
10174;SDS011;18221;38.704;0.152;2023-08-17T13:45:25;9.85;;;5.25;;
10174;SDS011;18221;38.704;0.152;2023-08-17T13:47:53;13.13;;;5.60;;
10174;SDS011;18221;38.704;0.152;2023-08-17T13:50:22;10.32;;;4.88;;
10174;SDS011;18221;38.704;0.152;2023-08-17T13:52:50;13.40;;;5.10;;
10174;SDS011;18221;38.704;0.152;2023-08-17T13:55:19;12.27;;;4.72;;
10174;SDS011;18221;38.704;0.152;2023-08-17T13:57:47;12.27;;;5.13;;
10174;SDS011;18221;38.704;0.152;2023-08-17T14:00:18;14.13;;;4.88;;
10174;SDS011;18221;38.704;0.152;2023-08-17T14:02:45;14.32;;;5.15;;
10174;SDS011;18221;38.704;0.152;2023-08-17T14:05:13;9.05;;;4.63;;
10174;SDS011;18221;38.704;0.152;2023-08-17T14:07:41;12.63;;;5.00;;
10174;SDS011;18221;38.704;0.152;2023-08-17T14:10:10;9.80;;;4.50;;
10174;SDS011;18221;38.704;0.152;2023-08-17T14:12:39;9.07;;;4.57;;
10174;SDS011;18221;38.704;0.152;2023-08-17T14:15:07;13.95;;;5.20;;
10174;SDS011;18221;38.704;0.152;2023-08-17T14:17:39;14.35;;;5.30;;
10174;SDS011;18221;38.704;0.152;2023-08-17T14:20:07;13.88;;;4.95;;
10174;SDS011;18221;38.704;0.152;2023-08-17T14:22:36;12.55;;;5.40;;
10174;SDS011;18221;38.704;0.152;2023-08-17T14:25:06;11.80;;;5.57;;
10174;SDS011;18221;38.704;0.152;2023-08-17T14:27:35;9.80;;;5.13;;
10174;SDS011;18221;38.704;0.152;2023-08-17T14:30:06;12.57;;;5.43;;
10174;SDS011;18221;38.704;0.152;2023-08-17T14:32:34;14.27;;;5.25;;
10174;SDS011;18221;38.704;0.152;2023-08-17T14:35:02;11.35;;;5.40;;
10174;SDS011;18221;38.704;0.152;2023-08-17T14:37:31;13.77;;;5.90;;
10174;SDS011;18221;38.704;0.152;2023-08-17T14:39:59;11.13;;;5.60;;
10174;SDS011;18221;38.704;0.152;2023-08-17T14:42:28;10.00;;;5.10;;
10174;SDS011;18221;38.704;0.152;2023-08-17T14:44:56;11.13;;;5.82;;
10174;SDS011;18221;38.704;0.152;2023-08-17T14:47:25;12.70;;;5.75;;
10174;SDS011;18221;38.704;0.152;2023-08-17T14:49:53;12.15;;;5.60;;
10174;SDS011;18221;38.704;0.152;2023-08-17T14:52:21;10.23;;;5.50;;
10174;SDS011;18221;38.704;0.152;2023-08-17T14:54:49;12.98;;;5.65;;
10174;SDS011;18221;38.704;0.152;2023-08-17T14:57:17;12.70;;;5.30;;
10174;SDS011;18221;38.704;0.152;2023-08-17T14:59:45;7.80;;;4.80;;
10174;SDS011;18221;38.704;0.152;2023-08-17T15:02:13;9.23;;;5.47;;
10174;SDS011;18221;38.704;0.152;2023-08-17T15:04:44;15.52;;;5.30;;
10174;SDS011;18221;38.704;0.152;2023-08-17T15:07:13;16.35;;;5.53;;
10174;SDS011;18221;38.704;0.152;2023-08-17T15:09:41;12.05;;;5.70;;
10174;SDS011;18221;38.704;0.152;2023-08-17T15:12:09;14.23;;;5.65;;